Time;durP1;ratioP1;P1;durP2;ratioP2;P2;SDS_P1;SDS_P2;PMS_P1;PMS_P2;Temp;Humidity;BMP_temperature;BMP_pressure;BME280_temperature;BME280_humidity;BME280_pressure;Samples;Min_cycle;Max_cycle;Signal;HPM_P1;HPM_P2
2023/01/07 00:02:39;;;;;;;13.53;10.37;;;6.90;99.90;;;;;;10099263;29;20254;-90
2023/01/07 00:07:41;;;;;;;14.87;9.77;;;6.70;99.90;;;;;;10079989;29;20190;-91
2023/01/07 00:12:43;;;;;;;17.40;11.67;;;7.00;99.90;;;;;;10071253;29;20203;-92
2023/01/07 00:17:46;;;;;;;19.33;13.40;;;7.10;99.90;;;;;;10132078;29;20206;-90
2023/01/07 00:22:50;;;;;;;14.77;11.00;;;7.20;99.90;;;;;;10108125;29;20246;-90
2023/01/07 00:27:53;;;;;;;18.47;13.37;;;7.50;99.90;;;;;;10105258;29;20438;-91
2023/01/07 00:33:03;;;;;;;24.33;14.57;;;8.50;99.90;;;;;;10108408;29;20215;-92
2023/01/07 00:38:06;;;;;;;22.93;15.23;;;8.30;99.90;;;;;;10106645;29;20189;-92
2023/01/07 00:43:10;;;;;;;18.97;13.30;;;8.20;99.90;;;;;;10092839;29;20218;-92
2023/01/07 00:48:12;;;;;;;16.30;11.40;;;8.70;99.90;;;;;;10092179;29;20219;-91
2023/01/07 00:53:16;;;;;;;21.37;14.27;;;8.40;99.90;;;;;;10092713;29;20195;-92
2023/01/07 00:58:24;;;;;;;18.33;13.67;;;8.20;99.90;;;;;;10092634;29;20193;-92
2023/01/07 01:03:29;;;;;;;23.03;15.40;;;8.30;99.90;;;;;;10091441;29;20214;-92
2023/01/07 01:08:31;;;;;;;19.83;13.17;;;8.40;99.90;;;;;;10091694;29;20222;-92
2023/01/07 01:13:35;;;;;;;16.27;12.13;;;8.80;99.90;;;;;;10108298;29;20234;-92
2023/01/07 01:18:38;;;;;;;15.53;11.67;;;9.50;99.90;;;;;;10108394;29;20200;-92
2023/01/07 01:23:42;;;;;;;20.63;11.37;;;10.20;99.90;;;;;;10107409;29;20235;-92
2023/01/07 01:28:45;;;;;;;15.07;10.87;;;10.70;99.90;;;;;;10107151;29;20276;-92
2023/01/07 01:33:53;;;;;;;12.57;9.33;;;11.40;99.90;;;;;;10091618;29;20391;-94
2023/01/07 01:38:56;;;;;;;14.70;8.50;;;11.20;99.90;;;;;;10091799;29;20190;-92
2023/01/07 01:44:01;;;;;;;17.40;12.97;;;11.50;99.90;;;;;;10091647;29;20216;-92
2023/01/07 01:49:07;;;;;;;17.07;10.83;;;11.10;99.90;;;;;;10089666;29;20236;-92
2023/01/07 01:54:13;;;;;;;12.23;8.43;;;10.60;99.90;;;;;;10107133;29;20211;-92
2023/01/07 01:59:24;;;;;;;10.80;7.17;;;11.30;99.90;;;;;;10091854;29;20198;-92
2023/01/07 02:04:30;;;;;;;14.50;8.67;;;12.00;99.90;;;;;;10093253;29;20193;-92
2023/01/07 02:09:33;;;;;;;12.70;6.97;;;11.90;99.90;;;;;;10093523;29;20211;-92
2023/01/07 02:15:08;;;;;;;9.80;6.20;;;12.00;99.90;;;;;;10092876;29;20190;-91
2023/01/07 02:20:24;;;;;;;16.20;10.00;;;11.90;99.90;;;;;;10108868;29;20243;-93
2023/01/07 02:25:49;;;;;;;15.93;11.20;;;11.70;99.90;;;;;;10108291;29;20191;-91
2023/01/07 02:31:10;;;;;;;18.57;12.40;;;11.10;99.90;;;;;;10092315;29;20248;-91
2023/01/07 02:36:39;;;;;;;13.07;8.90;;;10.60;99.90;;;;;;10108423;29;20205;-91
2023/01/07 02:41:58;;;;;;;12.90;10.13;;;10.90;99.90;;;;;;10089917;29;20213;-91
2023/01/07 02:47:15;;;;;;;15.93;9.97;;;11.40;99.90;;;;;;10099189;29;20214;-91
2023/01/07 02:52:25;;;;;;;16.30;9.97;;;11.20;99.90;;;;;;10100256;29;20225;-90
2023/01/07 02:57:46;;;;;;;19.93;12.17;;;10.90;99.90;;;;;;10099427;29;20219;-91
2023/01/07 03:03:24;;;;;;;19.10;12.67;;;10.50;99.90;;;;;;10100146;29;20221;-91
2023/01/07 03:08:52;;;;;;;12.93;9.93;;;10.50;99.90;;;;;;10098764;29;20194;-91
2023/01/07 03:13:57;;;;;;;19.77;10.30;;;10.70;99.90;;;;;;10076274;29;20194;-91
2023/01/07 03:19:17;;;;;;;17.80;11.93;;;10.60;99.90;;;;;;10060721;29;20190;-90
2023/01/07 03:24:22;;;;;;;13.43;8.47;;;10.10;99.90;;;;;;10085763;29;20242;-90
2023/01/07 03:29:25;;;;;;;11.83;7.53;;;10.50;99.90;;;;;;10114021;29;20243;-91
2023/01/07 03:34:29;;;;;;;8.87;6.57;;;11.10;99.90;;;;;;10114991;29;20206;-90
2023/01/07 03:39:33;;;;;;;11.27;6.17;;;11.80;99.90;;;;;;10115017;29;20201;-90
2023/01/07 03:44:37;;;;;;;13.53;8.63;;;12.20;99.90;;;;;;10098213;29;20224;-90
2023/01/07 03:49:40;;;;;;;9.70;6.60;;;12.10;99.90;;;;;;10098132;29;20194;-90
2023/01/07 03:54:43;;;;;;;11.67;8.63;;;12.10;99.90;;;;;;10097638;29;20194;-90
2023/01/07 03:59:46;;;;;;;6.83;5.33;;;11.70;99.90;;;;;;10097940;29;20182;-90
2023/01/07 04:04:50;;;;;;;9.43;6.47;;;11.90;99.90;;;;;;10097088;29;20186;-90
2023/01/07 04:09:54;;;;;;;9.77;7.33;;;12.10;99.90;;;;;;10097619;29;20304;-91
2023/01/07 04:14:57;;;;;;;14.80;10.67;;;12.40;99.90;;;;;;10097391;29;20181;-90
2023/01/07 04:20:01;;;;;;;10.30;8.10;;;11.60;99.90;;;;;;10083462;29;20215;-90
2023/01/07 04:25:05;;;;;;;7.37;5.93;;;11.20;99.90;;;;;;10052289;29;20269;-90
2023/01/07 04:30:09;;;;;;;11.53;8.60;;;11.90;99.90;;;;;;10050992;29;20817;-90
2023/01/07 04:35:13;;;;;;;13.13;7.93;;;11.10;99.90;;;;;;10068752;29;20206;-90
2023/01/07 04:40:15;;;;;;;20.53;11.27;;;11.20;99.90;;;;;;10052396;29;20288;-90
2023/01/07 04:45:18;;;;;;;11.47;8.43;;;10.90;99.90;;;;;;10068785;29;20273;-90
2023/01/07 04:50:22;;;;;;;14.80;9.10;;;10.50;99.90;;;;;;10051837;29;20211;-90
2023/01/07 04:55:24;;;;;;;14.90;10.60;;;10.60;99.90;;;;;;10051196;29;20206;-90
2023/01/07 05:00:27;;;;;;;13.97;10.90;;;9.70;99.90;;;;;;10067438;29;20251;-91
2023/01/07 05:05:30;;;;;;;17.77;11.30;;;8.90;99.90;;;;;;10066795;29;20198;-90
2023/01/07 05:10:33;;;;;;;19.47;10.13;;;8.60;99.90;;;;;;10049807;29;20214;-90
2023/01/07 05:15:37;;;;;;;16.67;10.27;;;8.70;99.90;;;;;;10049855;29;20290;-90
2023/01/07 05:20:39;;;;;;;16.83;10.40;;;8.40;99.90;;;;;;10066389;29;20569;-90
2023/01/07 05:25:42;;;;;;;14.80;9.20;;;8.30;99.90;;;;;;10049634;29;20204;-90
2023/01/07 05:30:46;;;;;;;16.87;9.77;;;8.40;99.90;;;;;;10048757;29;20250;-90
2023/01/07 05:35:49;;;;;;;18.53;9.57;;;8.80;99.90;;;;;;10039931;29;20220;-90
2023/01/07 05:40:52;;;;;;;18.33;10.10;;;8.50;99.90;;;;;;10010988;29;20592;-90
2023/01/07 05:45:59;;;;;;;19.70;10.03;;;8.30;99.90;;;;;;10017204;29;20208;-90
2023/01/07 05:51:02;;;;;;;16.17;8.73;;;8.20;99.90;;;;;;10054066;29;20250;-91
2023/01/07 05:56:05;;;;;;;15.03;9.53;;;8.10;99.90;;;;;;10064182;29;20225;-91
2023/01/07 06:01:07;;;;;;;16.97;9.30;;;8.10;99.90;;;;;;10082020;29;20652;-91
2023/01/07 06:06:10;;;;;;;15.33;10.07;;;8.10;99.90;;;;;;10069040;29;20210;-90
2023/01/07 06:11:12;;;;;;;13.93;9.97;;;8.00;99.90;;;;;;10064049;29;20586;-90
2023/01/07 06:16:15;;;;;;;13.53;7.80;;;8.10;99.90;;;;;;10063816;29;20707;-90
2023/01/07 06:21:18;;;;;;;16.43;9.57;;;8.30;99.90;;;;;;10062293;29;20309;-90
2023/01/07 06:26:21;;;;;;;17.57;8.93;;;8.40;99.90;;;;;;10046402;29;20226;-91
2023/01/07 06:31:24;;;;;;;17.07;11.43;;;8.70;99.90;;;;;;10064362;29;20269;-91
2023/01/07 06:36:26;;;;;;;11.33;8.13;;;8.50;99.90;;;;;;10064157;29;20206;-92
2023/01/07 06:41:29;;;;;;;16.30;10.60;;;9.00;99.90;;;;;;10063258;29;20615;-91
2023/01/07 06:46:31;;;;;;;15.63;10.77;;;8.60;99.90;;;;;;10079559;29;20638;-90
2023/01/07 06:51:34;;;;;;;17.50;11.40;;;8.40;99.90;;;;;;10098494;29;20328;-92
2023/01/07 06:56:36;;;;;;;14.77;8.90;;;8.10;99.90;;;;;;10069895;29;20286;-92
2023/01/07 07:01:39;;;;;;;11.93;7.13;;;8.10;99.90;;;;;;10067733;29;20304;-91
2023/01/07 07:06:42;;;;;;;11.80;7.70;;;8.10;99.90;;;;;;10071293;29;20237;-91
2023/01/07 07:11:44;;;;;;;13.20;7.60;;;7.90;99.90;;;;;;10079778;29;20932;-92
2023/01/07 07:16:48;;;;;;;8.20;6.33;;;7.90;99.90;;;;;;10081949;29;20301;-91
2023/01/07 07:21:50;;;;;;;10.10;6.70;;;8.30;99.90;;;;;;10080636;29;20249;-92
2023/01/07 07:26:53;;;;;;;16.73;8.17;;;8.80;99.90;;;;;;10069594;29;20328;-91
2023/01/07 07:31:56;;;;;;;21.60;10.77;;;8.40;99.90;;;;;;10060290;29;20730;-90
2023/01/07 07:36:58;;;;;;;21.57;11.80;;;8.30;99.90;;;;;;10084739;29;20219;-92
2023/01/07 07:42:05;;;;;;;31.43;11.87;;;8.20;99.90;;;;;;10082532;29;20261;-92
2023/01/07 07:47:07;;;;;;;28.63;14.33;;;8.10;99.90;;;;;;10053343;29;20245;-91
2023/01/07 07:52:10;;;;;;;37.53;18.27;;;7.90;99.90;;;;;;10057532;29;20274;-92
2023/01/07 07:57:12;;;;;;;27.07;15.33;;;7.90;99.90;;;;;;10057940;29;20301;-91
2023/01/07 08:02:18;;;;;;;23.67;12.80;;;7.80;99.90;;;;;;10051830;29;20265;-91
2023/01/07 08:07:20;;;;;;;21.07;11.53;;;8.00;99.90;;;;;;10056481;29;20322;-91
2023/01/07 08:12:38;;;;;;;24.33;13.30;;;7.90;99.90;;;;;;10041410;29;20301;-92
2023/01/07 08:17:41;;;;;;;35.00;18.00;;;8.50;99.90;;;;;;10056779;29;20297;-91
2023/01/07 08:22:43;;;;;;;18.67;11.63;;;8.80;99.90;;;;;;10057658;29;20712;-91
2023/01/07 08:27:46;;;;;;;30.77;13.83;;;8.70;99.90;;;;;;10060032;29;20233;-91
2023/01/07 08:32:48;;;;;;;19.83;11.00;;;8.60;99.90;;;;;;10057703;29;20250;-91
2023/01/07 08:37:51;;;;;;;18.77;11.20;;;8.60;99.90;;;;;;10056108;29;20233;-91
2023/01/07 08:42:57;;;;;;;16.93;11.70;;;8.90;99.90;;;;;;10053537;29;20265;-91
2023/01/07 08:48:00;;;;;;;17.57;10.03;;;8.90;99.90;;;;;;10056252;29;20240;-91
2023/01/07 08:53:03;;;;;;;11.07;7.87;;;8.90;99.90;;;;;;10074913;29;20312;-93
2023/01/07 08:58:05;;;;;;;11.17;8.80;;;9.30;99.90;;;;;;10055581;29;20242;-90
2023/01/07 09:03:08;;;;;;;15.83;10.17;;;9.10;99.90;;;;;;10054944;29;20261;-91
2023/01/07 09:08:11;;;;;;;21.07;10.23;;;8.90;99.90;;;;;;10055011;29;20233;-91
2023/01/07 09:13:13;;;;;;;15.77;10.87;;;9.00;99.90;;;;;;10053186;29;20268;-92
2023/01/07 09:18:16;;;;;;;16.80;10.20;;;9.00;99.90;;;;;;10054462;29;20292;-92
2023/01/07 09:23:18;;;;;;;12.53;9.27;;;9.00;99.90;;;;;;10051659;29;20265;-90
2023/01/07 09:28:21;;;;;;;14.63;9.50;;;9.60;99.90;;;;;;10047862;29;20333;-92
2023/01/07 09:33:23;;;;;;;12.30;7.90;;;10.00;99.90;;;;;;10066502;29;20226;-92
2023/01/07 09:38:26;;;;;;;11.07;8.63;;;10.20;99.90;;;;;;10059022;29;20217;-92
2023/01/07 09:43:42;;;;;;;14.77;10.40;;;10.40;99.90;;;;;;10056406;29;20265;-92
2023/01/07 09:49:03;;;;;;;14.90;9.43;;;10.60;99.90;;;;;;10039442;29;20295;-92
2023/01/07 09:54:28;;;;;;;15.03;10.27;;;10.80;99.90;;;;;;10054070;29;20241;-92
2023/01/07 09:59:31;;;;;;;11.60;7.33;;;10.70;99.90;;;;;;10053098;29;20241;-93
2023/01/07 10:10:33;;;;;;;7.90;5.63;;;10.80;99.90;;;;;;10744091;23;9999809;-87
2023/01/07 10:15:47;;;;;;;10.17;8.60;;;11.10;99.90;;;;;;10050668;29;20283;-88
2023/01/07 10:20:52;;;;;;;13.90;10.17;;;11.00;99.90;;;;;;10050456;29;20241;-87
2023/01/07 10:25:57;;;;;;;17.73;11.90;;;11.10;99.90;;;;;;10050530;29;20719;-87
2023/01/07 10:31:01;;;;;;;16.57;10.00;;;11.10;99.90;;;;;;10051433;29;20237;-88
2023/01/07 10:36:29;;;;;;;11.27;8.30;;;10.60;99.90;;;;;;10050950;29;20281;-88
2023/01/07 10:42:11;;;;;;;24.80;13.83;;;10.80;99.90;;;;;;10035843;29;20962;-88
2023/01/07 10:47:24;;;;;;;18.87;13.07;;;10.60;99.90;;;;;;10055230;29;20261;-88
2023/01/07 10:52:45;;;;;;;17.80;12.63;;;10.70;99.90;;;;;;10083075;29;20253;-88
2023/01/07 10:57:50;;;;;;;25.10;15.40;;;10.00;99.90;;;;;;10085011;29;20244;-88
2023/01/07 11:02:57;;;;;;;23.00;14.90;;;10.00;99.90;;;;;;10082846;29;20328;-88
2023/01/07 11:08:03;;;;;;;18.87;13.53;;;9.90;99.90;;;;;;10086918;29;20224;-88
2023/01/07 11:13:34;;;;;;;20.50;14.17;;;9.70;99.90;;;;;;10055128;29;20284;-87
2023/01/07 11:19:10;;;;;;;23.77;16.40;;;9.70;99.90;;;;;;10092436;29;20266;-87
2023/01/07 11:24:34;;;;;;;23.33;15.83;;;9.60;99.90;;;;;;10010405;29;20714;-86
2023/01/07 11:29:44;;;;;;;37.60;27.03;;;9.60;99.90;;;;;;10045391;29;20369;-87
2023/01/07 11:34:50;;;;;;;22.50;14.87;;;9.40;99.90;;;;;;10065476;29;20229;-86
2023/01/07 11:39:58;;;;;;;17.77;12.37;;;9.70;99.90;;;;;;9366357;29;10000141;-89
2023/01/07 11:45:11;;;;;;;22.73;14.23;;;11.10;99.90;;;;;;10037308;29;20253;-89
2023/01/07 11:50:29;;;;;;;25.27;17.03;;;11.20;99.90;;;;;;10037135;29;20683;-89
2023/01/07 11:55:32;;;;;;;25.23;17.93;;;10.70;99.90;;;;;;10053588;29;20321;-90
2023/01/07 12:00:34;;;;;;;25.90;16.97;;;10.50;99.90;;;;;;10036824;29;20317;-89
2023/01/07 12:05:38;;;;;;;32.93;19.90;;;10.40;99.90;;;;;;10053073;29;20265;-89
2023/01/07 12:16:09;;;;;;;29.03;18.30;;;10.00;99.90;;;;;;9973163;29;20230;-89
2023/01/07 12:21:33;;;;;;;48.50;31.83;;;10.30;99.90;;;;;;9977718;29;20235;-89
2023/01/07 12:26:44;;;;;;;128.80;89.10;;;10.00;99.90;;;;;;9961176;29;20246;-88
2023/01/07 12:31:55;;;;;;;92.57;38.83;;;9.90;99.90;;;;;;9960767;29;20315;-88
2023/01/07 12:37:09;;;;;;;26.23;19.67;;;9.80;99.90;;;;;;9959475;29;20299;-88
2023/01/07 12:42:19;;;;;;;33.60;26.03;;;10.00;99.90;;;;;;9974394;29;20287;-88
2023/01/07 12:47:28;;;;;;;44.43;27.97;;;9.90;99.90;;;;;;9960372;29;20292;-89
2023/01/07 12:52:48;;;;;;;92.30;55.90;;;9.80;99.90;;;;;;9975738;29;20311;-88
2023/01/07 12:58:14;;;;;;;52.77;32.93;;;9.80;99.90;;;;;;9976591;29;20242;-89
2023/01/07 13:03:22;;;;;;;29.70;20.33;;;10.00;99.90;;;;;;9959587;29;20403;-90
2023/01/07 13:08:44;;;;;;;21.23;16.03;;;10.60;99.90;;;;;;9958930;29;20360;-90
2023/01/07 13:13:53;;;;;;;29.70;24.20;;;11.20;99.90;;;;;;9964774;29;20334;-90
2023/01/07 13:18:55;;;;;;;18.87;14.43;;;10.60;99.90;;;;;;9980626;29;20326;-86
2023/01/07 13:24:18;;;;;;;30.17;21.20;;;11.30;99.90;;;;;;9976968;29;20270;-86
2023/01/07 13:29:32;;;;;;;23.60;17.53;;;11.50;99.90;;;;;;9961347;29;20323;-86
2023/01/07 13:34:53;;;;;;;20.90;15.57;;;11.30;99.90;;;;;;9961299;29;20238;-86
2023/01/07 13:40:05;;;;;;;22.23;17.10;;;11.10;99.90;;;;;;9975339;29;20272;-86
2023/01/07 13:45:12;;;;;;;17.10;14.23;;;9.90;99.90;;;;;;9975716;29;20250;-85
2023/01/07 13:50:37;;;;;;;18.30;13.50;;;10.40;99.90;;;;;;9976663;29;20246;-86
2023/01/07 13:55:42;;;;;;;20.17;15.80;;;10.70;99.90;;;;;;9980755;29;20699;-85
2023/01/07 14:01:00;;;;;;;26.00;20.43;;;;;;;;;;9960922;29;20712;-85
2023/01/07 14:06:18;;;;;;;22.70;14.93;;;9.20;99.90;;;;;;9992120;29;20341;-85
2023/01/07 14:11:29;;;;;;;23.67;15.67;;;8.90;99.90;;;;;;9991135;29;20282;-85
2023/01/07 14:16:38;;;;;;;22.43;14.77;;;9.50;99.90;;;;;;9993498;29;20228;-85
2023/01/07 14:21:53;;;;;;;15.77;12.33;;;10.00;99.90;;;;;;9976247;29;20242;-85
2023/01/07 14:27:07;;;;;;;18.80;14.30;;;10.60;99.90;;;;;;9976160;29;20318;-85
2023/01/07 14:32:29;;;;;;;17.57;12.80;;;10.80;99.90;;;;;;9963941;29;20306;-84
2023/01/07 14:37:35;;;;;;;19.93;15.33;;;11.10;99.90;;;;;;9982490;29;20310;-86
2023/01/07 14:42:41;;;;;;;23.57;18.17;;;9.70;99.90;;;;;;9990147;29;20311;-84
2023/01/07 14:47:44;;;;;;;17.67;12.33;;;8.70;99.90;;;;;;9987651;29;20652;-84
2023/01/07 14:53:28;;;;;;;29.97;21.23;;;8.60;99.90;;;;;;9990801;29;20242;-84
2023/01/07 14:58:39;;;;;;;34.17;25.23;;;8.10;99.90;;;;;;9993542;29;20295;-84
2023/01/07 15:04:00;;;;;;;32.73;26.60;;;7.80;99.90;;;;;;9990820;29;20653;-84
2023/01/07 15:19:51;;;;;;;38.63;25.27;;;7.50;99.90;;;;;;9986319;29;20230;-84
2023/01/07 15:25:02;;;;;;;36.10;23.60;;;7.30;99.90;;;;;;9971264;29;20258;-84
2023/01/07 15:30:33;;;;;;;35.70;23.80;;;7.20;99.90;;;;;;9990053;29;20271;-85
2023/01/07 15:35:41;;;;;;;39.73;25.70;;;7.00;99.90;;;;;;9990554;29;20272;-84
2023/01/07 15:40:46;;;;;;;40.73;27.10;;;7.00;99.90;;;;;;9971916;29;20238;-84
2023/01/07 15:46:06;;;;;;;39.50;25.17;;;6.90;99.90;;;;;;9652944;29;10000145;-84
2023/01/07 15:51:17;;;;;;;39.57;26.80;;;6.80;99.90;;;;;;9986730;29;20263;-85
2023/01/07 15:56:21;;;;;;;47.17;29.07;;;6.70;99.90;;;;;;9999644;29;20241;-85
2023/01/07 16:01:24;;;;;;;42.50;28.50;;;6.80;99.90;;;;;;9994207;29;20324;-85
2023/01/07 16:06:30;;;;;;;44.37;30.30;;;6.70;99.90;;;;;;9995973;29;20811;-85
2023/01/07 16:11:32;;;;;;;48.50;29.97;;;6.80;99.90;;;;;;9994454;29;20678;-84
2023/01/07 16:16:35;;;;;;;49.67;29.60;;;6.80;99.90;;;;;;9989370;29;20226;-85
2023/01/07 16:21:42;;;;;;;40.40;28.07;;;6.80;99.90;;;;;;9994330;29;20237;-85
2023/01/07 16:27:04;;;;;;;50.47;30.47;;;6.80;99.90;;;;;;9990084;29;20262;-85
2023/01/07 16:32:07;;;;;;;42.07;28.40;;;6.80;99.90;;;;;;9994823;29;20957;-85
2023/01/07 16:37:14;;;;;;;45.40;31.43;;;6.80;99.90;;;;;;9993963;29;20880;-84
2023/01/07 16:42:26;;;;;;;51.97;33.67;;;6.90;99.90;;;;;;10000540;29;20295;-85
2023/01/07 16:47:31;;;;;;;17.57;11.50;;;6.80;99.90;;;;;;9970471;29;20645;-85
2023/01/07 16:52:34;;;;;;;25.80;14.93;;;6.90;99.90;;;;;;9976803;29;20740;-85
2023/01/07 16:57:41;;;;;;;21.33;11.47;;;7.90;99.90;;;;;;9976634;29;20622;-85
2023/01/07 17:02:53;;;;;;;22.67;15.30;;;8.50;99.90;;;;;;9947689;29;20755;-85
2023/01/07 17:08:00;;;;;;;38.40;17.53;;;9.40;99.90;;;;;;9975380;29;20235;-85
2023/01/07 17:13:23;;;;;;;31.47;15.43;;;9.90;99.90;;;;;;9960016;29;20820;-85
2023/01/07 17:18:27;;;;;;;36.40;20.00;;;10.40;99.90;;;;;;9968996;29;20697;-85
2023/01/07 17:23:32;;;;;;;25.50;14.87;;;10.80;99.90;;;;;;9976682;29;20294;-86
2023/01/07 17:28:46;;;;;;;37.37;22.77;;;10.90;99.90;;;;;;9977512;29;20272;-85
2023/01/07 17:33:51;;;;;;;33.30;19.07;;;10.80;99.90;;;;;;9977788;29;20272;-85
2023/01/07 17:38:54;;;;;;;47.50;27.13;;;10.40;99.90;;;;;;9977457;29;20859;-85
2023/01/07 17:43:57;;;;;;;34.83;20.40;;;10.20;99.90;;;;;;9974708;29;20721;-85
2023/01/07 17:48:59;;;;;;;31.37;18.60;;;10.20;99.90;;;;;;9976414;29;20242;-85
2023/01/07 17:54:02;;;;;;;23.63;15.17;;;10.30;99.90;;;;;;9976706;29;20700;-85
2023/01/07 17:59:05;;;;;;;26.33;15.37;;;10.90;99.90;;;;;;9958769;29;20666;-85
2023/01/07 18:04:07;;;;;;;44.47;25.80;;;11.40;99.90;;;;;;9958519;29;20698;-85
2023/01/07 18:09:12;;;;;;;99.57;57.50;;;11.60;99.90;;;;;;9969076;29;20243;-86
2023/01/07 18:14:15;;;;;;;54.90;32.33;;;10.70;99.90;;;;;;9975197;29;20257;-86
2023/01/07 18:19:18;;;;;;;40.27;25.13;;;10.80;99.90;;;;;;9967315;29;20280;-86
2023/01/07 18:24:21;;;;;;;46.37;25.50;;;10.60;99.90;;;;;;9975136;29;20266;-86
2023/01/07 18:29:24;;;;;;;42.63;27.13;;;10.30;99.90;;;;;;9972983;29;20234;-86
2023/01/07 18:34:28;;;;;;;25.63;16.27;;;10.30;99.90;;;;;;9974419;29;20613;-86
2023/01/07 18:39:30;;;;;;;45.70;27.07;;;10.60;99.90;;;;;;9973190;29;20239;-86
2023/01/07 18:44:34;;;;;;;46.03;27.77;;;10.50;99.90;;;;;;9971731;29;20694;-86
2023/01/07 18:49:36;;;;;;;53.17;31.93;;;10.20;99.90;;;;;;10086348;23;20267;-86
2023/01/07 18:54:44;;;;;;;46.70;28.90;;;10.00;99.90;;;;;;10056278;29;20274;-85
2023/01/07 19:00:37;;;;;;;41.97;26.93;;;10.00;99.90;;;;;;10069703;29;20305;-85
2023/01/07 19:05:40;;;;;;;47.93;30.60;;;9.60;99.90;;;;;;10055658;29;20289;-85
2023/01/07 19:10:44;;;;;;;39.00;25.13;;;9.40;99.90;;;;;;10064556;29;20268;-85
2023/01/07 19:15:52;;;;;;;49.77;31.13;;;9.70;99.90;;;;;;10053818;29;20754;-85
2023/01/07 19:20:55;;;;;;;45.80;27.40;;;9.90;99.90;;;;;;10082727;29;20700;-86
2023/01/07 19:26:00;;;;;;;45.43;28.57;;;9.80;99.90;;;;;;10088687;29;20332;-85
2023/01/07 19:31:05;;;;;;;42.43;27.60;;;9.10;99.90;;;;;;10076423;29;20701;-85
2023/01/07 19:36:21;;;;;;;37.80;25.87;;;8.80;99.90;;;;;;10056855;29;20633;-85
2023/01/07 19:41:23;;;;;;;32.63;19.87;;;8.70;99.90;;;;;;10060875;29;20248;-86
2023/01/07 19:46:27;;;;;;;36.77;23.67;;;8.60;99.90;;;;;;10059682;29;20324;-85
2023/01/07 19:51:35;;;;;;;29.30;19.73;;;9.30;99.90;;;;;;10094174;29;20319;-85
2023/01/07 20:03:44;;;;;;;35.73;24.27;;;9.70;99.90;;;;;;10062165;29;20249;-86
2023/01/07 20:08:50;;;;;;;43.33;27.63;;;10.20;99.90;;;;;;10072909;29;20296;-86
2023/01/07 20:13:53;;;;;;;38.53;26.33;;;9.70;99.90;;;;;;10057033;29;20281;-86
2023/01/07 20:18:55;;;;;;;36.57;23.80;;;9.00;99.90;;;;;;10083782;29;20298;-86
2023/01/07 20:23:58;;;;;;;30.00;21.13;;;8.70;99.90;;;;;;10057423;29;20307;-85
2023/01/07 20:29:01;;;;;;;34.17;21.93;;;8.80;99.90;;;;;;10036899;29;20242;-86
2023/01/07 20:34:04;;;;;;;32.80;19.73;;;9.60;99.90;;;;;;10036432;29;20701;-85
2023/01/07 20:39:06;;;;;;;37.50;25.50;;;10.40;99.90;;;;;;10084155;29;20308;-86
2023/01/07 20:44:10;;;;;;;42.97;29.57;;;9.80;99.90;;;;;;10090279;29;20262;-86
2023/01/07 20:49:14;;;;;;;46.10;29.23;;;9.10;99.90;;;;;;10084850;29;20270;-86
2023/01/07 20:54:17;;;;;;;47.77;27.90;;;8.40;99.90;;;;;;10073860;29;20265;-86
2023/01/07 20:59:20;;;;;;;48.30;29.20;;;8.10;99.90;;;;;;10110366;29;20286;-86
2023/01/07 21:04:23;;;;;;;50.37;32.73;;;7.90;99.90;;;;;;10126544;29;20309;-86
2023/01/07 21:09:25;;;;;;;56.60;35.43;;;8.30;99.90;;;;;;9768593;29;9999815;-86
2023/01/07 21:14:28;;;;;;;40.80;27.03;;;7.50;99.90;;;;;;10101881;29;20237;-86
2023/01/07 21:19:31;;;;;;;41.13;27.37;;;7.30;99.90;;;;;;10124940;29;20227;-85
2023/01/07 21:24:33;;;;;;;43.77;28.23;;;7.00;99.90;;;;;;10123564;29;20305;-86
2023/01/07 21:29:36;;;;;;;38.10;24.83;;;6.80;99.90;;;;;;10096102;29;20271;-86
2023/01/07 21:34:39;;;;;;;29.33;19.37;;;6.80;99.90;;;;;;10105231;29;20239;-86
2023/01/07 21:39:41;;;;;;;30.83;20.87;;;7.10;99.90;;;;;;10125241;29;20232;-86
2023/01/07 21:44:44;;;;;;;39.57;25.70;;;8.10;99.90;;;;;;10113621;29;20368;-87
2023/01/07 21:49:50;;;;;;;35.77;25.00;;;8.50;99.90;;;;;;10096467;29;20267;-87
2023/01/07 21:55:18;;;;;;;39.20;23.63;;;8.50;99.90;;;;;;10095441;29;20266;-87
2023/01/07 22:00:20;;;;;;;44.33;27.63;;;8.90;99.90;;;;;;10103229;29;20305;-87
2023/01/07 22:05:23;;;;;;;43.30;26.33;;;8.20;99.90;;;;;;10119757;29;20323;-86
2023/01/07 22:10:25;;;;;;;27.83;18.00;;;8.70;99.90;;;;;;10110277;29;20295;-86
2023/01/07 22:15:29;;;;;;;26.90;17.77;;;8.90;99.90;;;;;;10083228;29;20301;-86
2023/01/07 22:20:32;;;;;;;43.13;27.77;;;9.40;99.90;;;;;;10067708;29;20244;-86
2023/01/07 22:25:34;;;;;;;36.37;21.47;;;9.30;99.90;;;;;;10086918;29;20268;-86
2023/01/07 22:30:39;;;;;;;28.13;18.63;;;8.90;99.90;;;;;;10068184;29;20277;-85
2023/01/07 22:35:42;;;;;;;35.97;24.67;;;8.60;99.90;;;;;;10071104;29;20242;-85
2023/01/07 22:40:45;;;;;;;42.63;26.37;;;8.40;99.90;;;;;;10059533;29;20264;-85
2023/01/07 22:45:50;;;;;;;34.30;20.63;;;8.60;99.90;;;;;;10069499;29;20316;-86
2023/01/07 22:50:59;;;;;;;24.93;17.00;;;8.50;99.90;;;;;;10058599;29;20309;-85
2023/01/07 22:56:02;;;;;;;34.83;23.47;;;9.30;99.90;;;;;;10086150;29;20300;-86
2023/01/07 23:01:08;;;;;;;35.87;23.37;;;9.30;99.90;;;;;;10068298;29;20245;-86
2023/01/07 23:06:13;;;;;;;35.43;25.07;;;8.70;99.90;;;;;;10062890;29;20285;-87
2023/01/07 23:16:38;;;;;;;46.33;29.23;;;8.10;99.90;;;;;;10133578;29;20802;-85
2023/01/07 23:21:42;;;;;;;36.37;25.03;;;7.50;99.90;;;;;;10078712;29;20625;-85
2023/01/07 23:26:46;;;;;;;42.97;26.53;;;7.40;99.90;;;;;;10066670;29;20269;-85
2023/01/07 23:31:49;;;;;;;35.73;24.63;;;7.00;99.90;;;;;;10101332;29;20239;-85
2023/01/07 23:36:52;;;;;;;37.97;24.40;;;6.50;99.90;;;;;;10133381;29;20251;-85
2023/01/07 23:41:54;;;;;;;30.60;18.87;;;6.70;99.90;;;;;;10067558;29;20711;-84
2023/01/07 23:46:57;;;;;;;27.13;17.80;;;8.20;99.90;;;;;;10057281;29;20331;-85
2023/01/07 23:51:59;;;;;;;26.77;15.43;;;8.70;99.90;;;;;;10058592;29;20892;-85
2023/01/07 23:57:02;;;;;;;36.67;23.37;;;9.30;99.90;;;;;;10063122;29;20253;-85
